sensor_id;sensor_type;location;lat;lon;timestamp;P1;durP1;ratioP1;P2;durP2;ratioP2
8887;SDS011;4480;52.370;9.748;2023-02-15T00:01:49;23.65;;;16.92;;
8887;SDS011;4480;52.370;9.748;2023-02-15T00:04:18;27.75;;;16.42;;
8887;SDS011;4480;52.370;9.748;2023-02-15T00:06:46;27.27;;;15.77;;
8887;SDS011;4480;52.370;9.748;2023-02-15T00:09:13;22.00;;;14.82;;
8887;SDS011;4480;52.370;9.748;2023-02-15T00:11:40;24.77;;;15.27;;
8887;SDS011;4480;52.370;9.748;2023-02-15T00:14:09;21.60;;;15.43;;
8887;SDS011;4480;52.370;9.748;2023-02-15T00:16:37;23.67;;;15.90;;
8887;SDS011;4480;52.370;9.748;2023-02-15T00:19:06;23.00;;;15.40;;
8887;SDS011;4480;52.370;9.748;2023-02-15T00:21:34;22.73;;;15.60;;
8887;SDS011;4480;52.370;9.748;2023-02-15T00:24:02;23.95;;;15.15;;
8887;SDS011;4480;52.370;9.748;2023-02-15T00:26:31;21.70;;;14.10;;
8887;SDS011;4480;52.370;9.748;2023-02-15T00:28:58;22.40;;;15.63;;
8887;SDS011;4480;52.370;9.748;2023-02-15T00:31:25;19.80;;;13.95;;
8887;SDS011;4480;52.370;9.748;2023-02-15T00:33:55;24.35;;;16.02;;
8887;SDS011;4480;52.370;9.748;2023-02-15T00:36:23;21.33;;;15.10;;
8887;SDS011;4480;52.370;9.748;2023-02-15T00:38:50;20.23;;;13.85;;
8887;SDS011;4480;52.370;9.748;2023-02-15T00:41:17;19.48;;;14.15;;
8887;SDS011;4480;52.370;9.748;2023-02-15T00:43:43;17.25;;;13.07;;
8887;SDS011;4480;52.370;9.748;2023-02-15T00:46:10;24.00;;;13.80;;
8887;SDS011;4480;52.370;9.748;2023-02-15T00:48:37;14.73;;;11.55;;
8887;SDS011;4480;52.370;9.748;2023-02-15T00:51:04;17.92;;;13.40;;
8887;SDS011;4480;52.370;9.748;2023-02-15T00:53:32;18.85;;;12.20;;
8887;SDS011;4480;52.370;9.748;2023-02-15T00:55:59;21.33;;;14.77;;
8887;SDS011;4480;52.370;9.748;2023-02-15T00:58:25;17.38;;;13.40;;
8887;SDS011;4480;52.370;9.748;2023-02-15T01:00:52;16.48;;;12.07;;
8887;SDS011;4480;52.370;9.748;2023-02-15T01:03:19;25.10;;;13.15;;
8887;SDS011;4480;52.370;9.748;2023-02-15T01:05:47;16.38;;;11.95;;
8887;SDS011;4480;52.370;9.748;2023-02-15T01:08:15;17.23;;;12.65;;
8887;SDS011;4480;52.370;9.748;2023-02-15T01:10:44;16.38;;;12.43;;
8887;SDS011;4480;52.370;9.748;2023-02-15T01:13:12;18.75;;;12.82;;
8887;SDS011;4480;52.370;9.748;2023-02-15T01:15:40;20.77;;;12.30;;
8887;SDS011;4480;52.370;9.748;2023-02-15T01:18:07;15.18;;;10.95;;
8887;SDS011;4480;52.370;9.748;2023-02-15T01:20:34;17.20;;;12.05;;
8887;SDS011;4480;52.370;9.748;2023-02-15T01:23:04;17.48;;;12.48;;
8887;SDS011;4480;52.370;9.748;2023-02-15T01:25:32;16.88;;;11.27;;
8887;SDS011;4480;52.370;9.748;2023-02-15T01:28:01;15.30;;;11.57;;
8887;SDS011;4480;52.370;9.748;2023-02-15T01:30:28;14.05;;;11.07;;
8887;SDS011;4480;52.370;9.748;2023-02-15T01:32:55;15.63;;;11.18;;
8887;SDS011;4480;52.370;9.748;2023-02-15T01:35:22;18.30;;;11.70;;
8887;SDS011;4480;52.370;9.748;2023-02-15T01:37:49;19.67;;;11.77;;
8887;SDS011;4480;52.370;9.748;2023-02-15T01:40:16;14.57;;;10.80;;
8887;SDS011;4480;52.370;9.748;2023-02-15T01:42:44;16.23;;;11.52;;
8887;SDS011;4480;52.370;9.748;2023-02-15T01:45:16;16.17;;;11.45;;
8887;SDS011;4480;52.370;9.748;2023-02-15T01:47:47;16.98;;;12.60;;
8887;SDS011;4480;52.370;9.748;2023-02-15T01:50:21;17.80;;;11.85;;
8887;SDS011;4480;52.370;9.748;2023-02-15T01:52:51;16.10;;;11.05;;
8887;SDS011;4480;52.370;9.748;2023-02-15T01:55:22;18.23;;;13.02;;
8887;SDS011;4480;52.370;9.748;2023-02-15T01:57:51;16.40;;;12.15;;
8887;SDS011;4480;52.370;9.748;2023-02-15T02:02:49;14.82;;;11.23;;
8887;SDS011;4480;52.370;9.748;2023-02-15T02:05:18;14.52;;;10.75;;
8887;SDS011;4480;52.370;9.748;2023-02-15T02:07:45;16.13;;;11.48;;
8887;SDS011;4480;52.370;9.748;2023-02-15T02:10:16;15.27;;;11.32;;
8887;SDS011;4480;52.370;9.748;2023-02-15T02:12:45;15.13;;;10.77;;
8887;SDS011;4480;52.370;9.748;2023-02-15T02:15:13;14.15;;;11.07;;
8887;SDS011;4480;52.370;9.748;2023-02-15T02:17:44;17.08;;;11.82;;
8887;SDS011;4480;52.370;9.748;2023-02-15T02:20:34;16.23;;;11.40;;
8887;SDS011;4480;52.370;9.748;2023-02-15T02:23:25;15.32;;;10.95;;
8887;SDS011;4480;52.370;9.748;2023-02-15T02:26:03;15.02;;;11.45;;
8887;SDS011;4480;52.370;9.748;2023-02-15T02:29:06;18.48;;;10.57;;
8887;SDS011;4480;52.370;9.748;2023-02-15T02:32:07;19.85;;;12.50;;
8887;SDS011;4480;52.370;9.748;2023-02-15T02:34:48;16.70;;;11.80;;
8887;SDS011;4480;52.370;9.748;2023-02-15T02:37:22;14.15;;;11.20;;
8887;SDS011;4480;52.370;9.748;2023-02-15T02:39:56;17.13;;;11.30;;
8887;SDS011;4480;52.370;9.748;2023-02-15T02:42:29;18.55;;;12.15;;
8887;SDS011;4480;52.370;9.748;2023-02-15T02:45:03;18.17;;;11.85;;
8887;SDS011;4480;52.370;9.748;2023-02-15T02:47:33;15.38;;;10.98;;
8887;SDS011;4480;52.370;9.748;2023-02-15T02:50:08;16.52;;;12.02;;
8887;SDS011;4480;52.370;9.748;2023-02-15T02:52:40;18.42;;;12.00;;
8887;SDS011;4480;52.370;9.748;2023-02-15T02:55:10;15.07;;;13.00;;
8887;SDS011;4480;52.370;9.748;2023-02-15T02:57:45;16.52;;;11.60;;
8887;SDS011;4480;52.370;9.748;2023-02-15T03:00:18;17.70;;;10.98;;
8887;SDS011;4480;52.370;9.748;2023-02-15T03:02:46;15.48;;;12.30;;
8887;SDS011;4480;52.370;9.748;2023-02-15T03:05:21;15.70;;;11.85;;
8887;SDS011;4480;52.370;9.748;2023-02-15T03:07:51;16.75;;;11.57;;
8887;SDS011;4480;52.370;9.748;2023-02-15T03:10:22;17.85;;;12.07;;
8887;SDS011;4480;52.370;9.748;2023-02-15T03:12:50;17.38;;;12.20;;
8887;SDS011;4480;52.370;9.748;2023-02-15T03:15:19;16.65;;;11.80;;
8887;SDS011;4480;52.370;9.748;2023-02-15T03:17:48;19.02;;;13.23;;
8887;SDS011;4480;52.370;9.748;2023-02-15T03:20:20;17.40;;;12.77;;
8887;SDS011;4480;52.370;9.748;2023-02-15T03:22:52;21.58;;;13.25;;
8887;SDS011;4480;52.370;9.748;2023-02-15T03:25:22;18.10;;;12.00;;
8887;SDS011;4480;52.370;9.748;2023-02-15T03:27:52;15.90;;;11.50;;
8887;SDS011;4480;52.370;9.748;2023-02-15T03:30:21;17.58;;;11.35;;
8887;SDS011;4480;52.370;9.748;2023-02-15T03:32:50;18.95;;;12.15;;
8887;SDS011;4480;52.370;9.748;2023-02-15T03:35:19;19.45;;;12.88;;
8887;SDS011;4480;52.370;9.748;2023-02-15T03:37:51;17.42;;;12.50;;
8887;SDS011;4480;52.370;9.748;2023-02-15T03:40:24;17.75;;;12.07;;
8887;SDS011;4480;52.370;9.748;2023-02-15T03:43:14;19.83;;;12.75;;
8887;SDS011;4480;52.370;9.748;2023-02-15T03:45:44;18.70;;;13.25;;
8887;SDS011;4480;52.370;9.748;2023-02-15T03:48:21;18.70;;;12.57;;
8887;SDS011;4480;52.370;9.748;2023-02-15T03:50:52;16.38;;;11.57;;
8887;SDS011;4480;52.370;9.748;2023-02-15T03:53:40;19.13;;;13.07;;
8887;SDS011;4480;52.370;9.748;2023-02-15T03:56:09;18.17;;;12.98;;
8887;SDS011;4480;52.370;9.748;2023-02-15T03:58:36;18.42;;;11.38;;
8887;SDS011;4480;52.370;9.748;2023-02-15T04:01:21;20.10;;;12.45;;
8887;SDS011;4480;52.370;9.748;2023-02-15T04:04:23;16.48;;;12.10;;
8887;SDS011;4480;52.370;9.748;2023-02-15T04:06:55;20.20;;;14.35;;
8887;SDS011;4480;52.370;9.748;2023-02-15T04:11:09;17.20;;;11.52;;
8887;SDS011;4480;52.370;9.748;2023-02-15T04:13:35;16.95;;;11.75;;
8887;SDS011;4480;52.370;9.748;2023-02-15T04:16:02;19.90;;;13.10;;
8887;SDS011;4480;52.370;9.748;2023-02-15T04:18:29;20.42;;;13.25;;
8887;SDS011;4480;52.370;9.748;2023-02-15T04:21:14;19.10;;;12.50;;
8887;SDS011;4480;52.370;9.748;2023-02-15T04:23:58;18.20;;;12.38;;
8887;SDS011;4480;52.370;9.748;2023-02-15T04:26:43;20.77;;;13.20;;
8887;SDS011;4480;52.370;9.748;2023-02-15T04:29:10;17.20;;;12.23;;
8887;SDS011;4480;52.370;9.748;2023-02-15T04:31:37;20.00;;;12.77;;
8887;SDS011;4480;52.370;9.748;2023-02-15T04:34:04;19.35;;;12.63;;
8887;SDS011;4480;52.370;9.748;2023-02-15T04:36:31;21.80;;;12.95;;
8887;SDS011;4480;52.370;9.748;2023-02-15T04:38:57;23.67;;;13.10;;
8887;SDS011;4480;52.370;9.748;2023-02-15T04:41:24;19.85;;;13.40;;
8887;SDS011;4480;52.370;9.748;2023-02-15T04:43:54;19.98;;;12.85;;
8887;SDS011;4480;52.370;9.748;2023-02-15T04:46:22;19.08;;;12.23;;
8887;SDS011;4480;52.370;9.748;2023-02-15T04:48:49;16.48;;;12.07;;
8887;SDS011;4480;52.370;9.748;2023-02-15T04:51:16;19.15;;;13.13;;
8887;SDS011;4480;52.370;9.748;2023-02-15T04:53:42;20.77;;;12.32;;
8887;SDS011;4480;52.370;9.748;2023-02-15T04:56:09;19.17;;;13.27;;
8887;SDS011;4480;52.370;9.748;2023-02-15T04:58:36;21.77;;;12.57;;
8887;SDS011;4480;52.370;9.748;2023-02-15T05:01:07;19.73;;;12.90;;
8887;SDS011;4480;52.370;9.748;2023-02-15T05:03:34;23.63;;;14.07;;
8887;SDS011;4480;52.370;9.748;2023-02-15T05:06:01;20.67;;;12.20;;
8887;SDS011;4480;52.370;9.748;2023-02-15T05:08:29;20.65;;;12.93;;
8887;SDS011;4480;52.370;9.748;2023-02-15T05:10:56;21.70;;;13.93;;
8887;SDS011;4480;52.370;9.748;2023-02-15T05:13:24;19.77;;;13.05;;
8887;SDS011;4480;52.370;9.748;2023-02-15T05:15:51;22.17;;;15.45;;
8887;SDS011;4480;52.370;9.748;2023-02-15T05:18:20;22.50;;;13.48;;
8887;SDS011;4480;52.370;9.748;2023-02-15T05:20:47;21.15;;;14.70;;
8887;SDS011;4480;52.370;9.748;2023-02-15T05:23:15;21.48;;;14.55;;
8887;SDS011;4480;52.370;9.748;2023-02-15T05:25:45;24.25;;;12.98;;
8887;SDS011;4480;52.370;9.748;2023-02-15T05:28:31;23.98;;;13.85;;
8887;SDS011;4480;52.370;9.748;2023-02-15T05:31:00;18.45;;;13.10;;
8887;SDS011;4480;52.370;9.748;2023-02-15T05:33:31;22.40;;;13.35;;
8887;SDS011;4480;52.370;9.748;2023-02-15T05:35:59;22.98;;;13.77;;
8887;SDS011;4480;52.370;9.748;2023-02-15T05:38:26;21.83;;;14.35;;
8887;SDS011;4480;52.370;9.748;2023-02-15T05:40:53;22.63;;;14.65;;
8887;SDS011;4480;52.370;9.748;2023-02-15T05:43:20;18.55;;;12.90;;
8887;SDS011;4480;52.370;9.748;2023-02-15T05:45:48;21.27;;;13.15;;
8887;SDS011;4480;52.370;9.748;2023-02-15T05:48:16;21.48;;;13.35;;
8887;SDS011;4480;52.370;9.748;2023-02-15T05:50:46;21.13;;;14.48;;
8887;SDS011;4480;52.370;9.748;2023-02-15T05:53:22;24.00;;;15.13;;
8887;SDS011;4480;52.370;9.748;2023-02-15T05:55:49;23.83;;;15.32;;
8887;SDS011;4480;52.370;9.748;2023-02-15T05:58:16;19.63;;;14.32;;
8887;SDS011;4480;52.370;9.748;2023-02-15T06:00:42;19.67;;;13.80;;
8887;SDS011;4480;52.370;9.748;2023-02-15T06:03:09;21.55;;;15.10;;
8887;SDS011;4480;52.370;9.748;2023-02-15T06:05:36;25.38;;;15.68;;
8887;SDS011;4480;52.370;9.748;2023-02-15T06:08:04;24.30;;;15.45;;
8887;SDS011;4480;52.370;9.748;2023-02-15T06:10:31;22.80;;;15.18;;
8887;SDS011;4480;52.370;9.748;2023-02-15T06:12:58;24.05;;;15.63;;
8887;SDS011;4480;52.370;9.748;2023-02-15T06:15:25;25.02;;;15.45;;
8887;SDS011;4480;52.370;9.748;2023-02-15T06:17:52;19.80;;;13.75;;
8887;SDS011;4480;52.370;9.748;2023-02-15T06:20:19;23.60;;;16.80;;
8887;SDS011;4480;52.370;9.748;2023-02-15T06:22:46;25.00;;;15.75;;
8887;SDS011;4480;52.370;9.748;2023-02-15T06:25:14;27.48;;;15.30;;
8887;SDS011;4480;52.370;9.748;2023-02-15T06:27:41;26.58;;;15.82;;
8887;SDS011;4480;52.370;9.748;2023-02-15T06:30:09;24.08;;;15.20;;
8887;SDS011;4480;52.370;9.748;2023-02-15T06:32:36;20.23;;;14.27;;
8887;SDS011;4480;52.370;9.748;2023-02-15T06:35:03;28.35;;;17.13;;
8887;SDS011;4480;52.370;9.748;2023-02-15T06:37:31;25.00;;;14.60;;
8887;SDS011;4480;52.370;9.748;2023-02-15T06:39:58;22.58;;;16.33;;
8887;SDS011;4480;52.370;9.748;2023-02-15T06:42:26;24.33;;;13.63;;
8887;SDS011;4480;52.370;9.748;2023-02-15T06:44:53;23.73;;;14.77;;
8887;SDS011;4480;52.370;9.748;2023-02-15T06:47:20;22.35;;;15.27;;
8887;SDS011;4480;52.370;9.748;2023-02-15T06:49:47;20.92;;;14.75;;
8887;SDS011;4480;52.370;9.748;2023-02-15T06:52:13;24.70;;;15.80;;
8887;SDS011;4480;52.370;9.748;2023-02-15T06:54:40;24.27;;;14.82;;
8887;SDS011;4480;52.370;9.748;2023-02-15T06:57:07;25.45;;;14.02;;
8887;SDS011;4480;52.370;9.748;2023-02-15T06:59:35;21.00;;;14.05;;
8887;SDS011;4480;52.370;9.748;2023-02-15T07:02:02;23.75;;;15.07;;
8887;SDS011;4480;52.370;9.748;2023-02-15T07:04:29;23.15;;;13.60;;
8887;SDS011;4480;52.370;9.748;2023-02-15T07:06:56;25.83;;;16.27;;
8887;SDS011;4480;52.370;9.748;2023-02-15T07:09:23;21.20;;;13.73;;
8887;SDS011;4480;52.370;9.748;2023-02-15T07:11:50;27.00;;;16.98;;
8887;SDS011;4480;52.370;9.748;2023-02-15T07:14:35;23.00;;;14.75;;
8887;SDS011;4480;52.370;9.748;2023-02-15T07:17:02;23.60;;;15.27;;
8887;SDS011;4480;52.370;9.748;2023-02-15T07:19:29;23.48;;;15.40;;
8887;SDS011;4480;52.370;9.748;2023-02-15T07:21:56;22.27;;;14.85;;
8887;SDS011;4480;52.370;9.748;2023-02-15T07:24:23;22.05;;;14.55;;
8887;SDS011;4480;52.370;9.748;2023-02-15T07:26:50;22.67;;;15.15;;
8887;SDS011;4480;52.370;9.748;2023-02-15T07:29:17;23.02;;;15.18;;
8887;SDS011;4480;52.370;9.748;2023-02-15T07:31:45;19.48;;;13.35;;
8887;SDS011;4480;52.370;9.748;2023-02-15T07:34:12;26.05;;;14.23;;
8887;SDS011;4480;52.370;9.748;2023-02-15T07:36:38;24.00;;;14.68;;
8887;SDS011;4480;52.370;9.748;2023-02-15T07:39:05;17.42;;;12.27;;
8887;SDS011;4480;52.370;9.748;2023-02-15T07:41:32;22.85;;;15.45;;
8887;SDS011;4480;52.370;9.748;2023-02-15T07:43:59;19.52;;;13.90;;
8887;SDS011;4480;52.370;9.748;2023-02-15T07:46:26;20.30;;;12.95;;
8887;SDS011;4480;52.370;9.748;2023-02-15T07:48:54;21.35;;;13.68;;
8887;SDS011;4480;52.370;9.748;2023-02-15T07:51:21;19.48;;;13.63;;
8887;SDS011;4480;52.370;9.748;2023-02-15T07:53:48;19.73;;;14.40;;
8887;SDS011;4480;52.370;9.748;2023-02-15T07:56:16;17.50;;;12.80;;
8887;SDS011;4480;52.370;9.748;2023-02-15T07:58:43;23.63;;;15.38;;
8887;SDS011;4480;52.370;9.748;2023-02-15T08:01:21;16.77;;;12.85;;
8887;SDS011;4480;52.370;9.748;2023-02-15T08:03:50;17.65;;;12.82;;
8887;SDS011;4480;52.370;9.748;2023-02-15T08:06:18;22.55;;;13.32;;
8887;SDS011;4480;52.370;9.748;2023-02-15T08:08:46;18.33;;;13.73;;
8887;SDS011;4480;52.370;9.748;2023-02-15T08:11:17;18.95;;;13.60;;
8887;SDS011;4480;52.370;9.748;2023-02-15T08:14:02;16.50;;;12.00;;
8887;SDS011;4480;52.370;9.748;2023-02-15T08:16:31;18.63;;;13.18;;
8887;SDS011;4480;52.370;9.748;2023-02-15T08:19:01;17.63;;;12.80;;
8887;SDS011;4480;52.370;9.748;2023-02-15T08:21:31;16.65;;;12.38;;
8887;SDS011;4480;52.370;9.748;2023-02-15T08:23:58;18.77;;;15.00;;
8887;SDS011;4480;52.370;9.748;2023-02-15T08:26:26;15.35;;;11.88;;
8887;SDS011;4480;52.370;9.748;2023-02-15T08:28:54;17.85;;;12.60;;
8887;SDS011;4480;52.370;9.748;2023-02-15T08:31:22;17.23;;;12.25;;
8887;SDS011;4480;52.370;9.748;2023-02-15T08:33:49;18.90;;;12.48;;
8887;SDS011;4480;52.370;9.748;2023-02-15T08:36:18;16.58;;;12.02;;
8887;SDS011;4480;52.370;9.748;2023-02-15T08:38:47;16.73;;;11.60;;
8887;SDS011;4480;52.370;9.748;2023-02-15T08:41:15;15.40;;;11.13;;
8887;SDS011;4480;52.370;9.748;2023-02-15T08:43:44;15.45;;;10.95;;
8887;SDS011;4480;52.370;9.748;2023-02-15T08:46:12;16.67;;;11.75;;
8887;SDS011;4480;52.370;9.748;2023-02-15T08:48:40;14.57;;;11.43;;
8887;SDS011;4480;52.370;9.748;2023-02-15T08:51:08;17.23;;;12.20;;
8887;SDS011;4480;52.370;9.748;2023-02-15T08:53:37;17.63;;;13.52;;
8887;SDS011;4480;52.370;9.748;2023-02-15T08:56:06;14.82;;;11.52;;
8887;SDS011;4480;52.370;9.748;2023-02-15T08:58:34;15.95;;;12.30;;
8887;SDS011;4480;52.370;9.748;2023-02-15T09:01:01;16.10;;;11.48;;
8887;SDS011;4480;52.370;9.748;2023-02-15T09:03:35;16.67;;;10.70;;
8887;SDS011;4480;52.370;9.748;2023-02-15T09:06:02;15.82;;;11.80;;
8887;SDS011;4480;52.370;9.748;2023-02-15T09:08:29;16.80;;;10.95;;
8887;SDS011;4480;52.370;9.748;2023-02-15T09:11:04;16.00;;;10.98;;
8887;SDS011;4480;52.370;9.748;2023-02-15T09:13:33;17.67;;;12.27;;
8887;SDS011;4480;52.370;9.748;2023-02-15T09:16:01;16.55;;;11.25;;
8887;SDS011;4480;52.370;9.748;2023-02-15T09:18:29;17.63;;;13.18;;
8887;SDS011;4480;52.370;9.748;2023-02-15T09:21:03;17.35;;;11.90;;
8887;SDS011;4480;52.370;9.748;2023-02-15T09:23:30;16.35;;;11.95;;
8887;SDS011;4480;52.370;9.748;2023-02-15T09:26:01;23.02;;;13.18;;
8887;SDS011;4480;52.370;9.748;2023-02-15T09:28:30;16.48;;;10.60;;
8887;SDS011;4480;52.370;9.748;2023-02-15T09:31:03;16.58;;;12.18;;
8887;SDS011;4480;52.370;9.748;2023-02-15T09:33:32;15.80;;;12.32;;
8887;SDS011;4480;52.370;9.748;2023-02-15T09:36:00;19.52;;;11.98;;
8887;SDS011;4480;52.370;9.748;2023-02-15T09:38:27;14.50;;;10.60;;
8887;SDS011;4480;52.370;9.748;2023-02-15T09:40:55;17.42;;;11.05;;
8887;SDS011;4480;52.370;9.748;2023-02-15T09:43:42;13.13;;;10.43;;
8887;SDS011;4480;52.370;9.748;2023-02-15T09:46:18;14.13;;;10.65;;
8887;SDS011;4480;52.370;9.748;2023-02-15T09:48:55;15.82;;;10.77;;
8887;SDS011;4480;52.370;9.748;2023-02-15T09:54:41;17.70;;;10.30;;
8887;SDS011;4480;52.370;9.748;2023-02-15T09:57:17;13.40;;;10.80;;
8887;SDS011;4480;52.370;9.748;2023-02-15T09:59:53;16.35;;;12.07;;
8887;SDS011;4480;52.370;9.748;2023-02-15T10:02:29;15.38;;;11.50;;
8887;SDS011;4480;52.370;9.748;2023-02-15T10:05:11;15.77;;;11.50;;
8887;SDS011;4480;52.370;9.748;2023-02-15T10:08:00;14.95;;;10.65;;
8887;SDS011;4480;52.370;9.748;2023-02-15T10:10:46;16.90;;;11.10;;
8887;SDS011;4480;52.370;9.748;2023-02-15T10:13:23;17.42;;;10.80;;
8887;SDS011;4480;52.370;9.748;2023-02-15T10:16:08;17.17;;;11.80;;
8887;SDS011;4480;52.370;9.748;2023-02-15T10:18:51;15.25;;;10.73;;
8887;SDS011;4480;52.370;9.748;2023-02-15T10:21:30;17.38;;;12.55;;
8887;SDS011;4480;52.370;9.748;2023-02-15T10:26:40;16.70;;;11.82;;
8887;SDS011;4480;52.370;9.748;2023-02-15T10:29:11;12.40;;;10.98;;
8887;SDS011;4480;52.370;9.748;2023-02-15T10:31:46;23.55;;;11.18;;
8887;SDS011;4480;52.370;9.748;2023-02-15T10:34:16;19.30;;;12.23;;
8887;SDS011;4480;52.370;9.748;2023-02-15T10:36:53;15.35;;;11.45;;
8887;SDS011;4480;52.370;9.748;2023-02-15T10:39:40;13.95;;;10.85;;
8887;SDS011;4480;52.370;9.748;2023-02-15T10:42:17;18.27;;;11.60;;
8887;SDS011;4480;52.370;9.748;2023-02-15T10:44:57;16.00;;;12.13;;
8887;SDS011;4480;52.370;9.748;2023-02-15T10:47:41;15.63;;;10.50;;
8887;SDS011;4480;52.370;9.748;2023-02-15T10:50:27;15.93;;;10.88;;
8887;SDS011;4480;52.370;9.748;2023-02-15T10:53:07;18.67;;;12.05;;
8887;SDS011;4480;52.370;9.748;2023-02-15T10:55:52;15.27;;;11.63;;
8887;SDS011;4480;52.370;9.748;2023-02-15T10:58:29;14.77;;;10.27;;
8887;SDS011;4480;52.370;9.748;2023-02-15T11:01:06;15.88;;;11.32;;
8887;SDS011;4480;52.370;9.748;2023-02-15T11:03:45;16.70;;;11.55;;
8887;SDS011;4480;52.370;9.748;2023-02-15T11:06:30;13.00;;;10.75;;
8887;SDS011;4480;52.370;9.748;2023-02-15T11:09:00;15.20;;;10.98;;
8887;SDS011;4480;52.370;9.748;2023-02-15T11:11:31;14.60;;;11.27;;
8887;SDS011;4480;52.370;9.748;2023-02-15T11:14:01;15.02;;;11.15;;
8887;SDS011;4480;52.370;9.748;2023-02-15T11:16:32;12.88;;;9.57;;
8887;SDS011;4480;52.370;9.748;2023-02-15T11:19:05;13.90;;;10.48;;
8887;SDS011;4480;52.370;9.748;2023-02-15T11:21:38;15.38;;;11.10;;
8887;SDS011;4480;52.370;9.748;2023-02-15T11:24:10;13.20;;;10.23;;
8887;SDS011;4480;52.370;9.748;2023-02-15T11:26:39;14.10;;;10.95;;
8887;SDS011;4480;52.370;9.748;2023-02-15T11:29:10;16.92;;;10.85;;
8887;SDS011;4480;52.370;9.748;2023-02-15T11:31:46;14.98;;;10.95;;
8887;SDS011;4480;52.370;9.748;2023-02-15T11:34:17;14.85;;;10.48;;
8887;SDS011;4480;52.370;9.748;2023-02-15T11:36:49;14.50;;;10.25;;
8887;SDS011;4480;52.370;9.748;2023-02-15T11:39:18;13.27;;;10.20;;
8887;SDS011;4480;52.370;9.748;2023-02-15T11:41:47;15.40;;;10.52;;
8887;SDS011;4480;52.370;9.748;2023-02-15T11:44:19;13.77;;;9.93;;
8887;SDS011;4480;52.370;9.748;2023-02-15T11:46:48;13.48;;;10.77;;
8887;SDS011;4480;52.370;9.748;2023-02-15T11:49:20;14.93;;;10.20;;
8887;SDS011;4480;52.370;9.748;2023-02-15T11:51:49;11.43;;;10.23;;
8887;SDS011;4480;52.370;9.748;2023-02-15T11:54:17;14.25;;;10.15;;
8887;SDS011;4480;52.370;9.748;2023-02-15T11:56:47;12.88;;;10.05;;
8887;SDS011;4480;52.370;9.748;2023-02-15T11:59:14;15.43;;;10.68;;
8887;SDS011;4480;52.370;9.748;2023-02-15T12:01:47;11.73;;;9.93;;
8887;SDS011;4480;52.370;9.748;2023-02-15T12:04:16;13.77;;;10.60;;
8887;SDS011;4480;52.370;9.748;2023-02-15T12:06:51;13.00;;;10.85;;
8887;SDS011;4480;52.370;9.748;2023-02-15T12:09:24;16.65;;;10.00;;
8887;SDS011;4480;52.370;9.748;2023-02-15T12:12:06;15.03;;;11.40;;
8887;SDS011;4480;52.370;9.748;2023-02-15T12:14:47;13.93;;;9.50;;
8887;SDS011;4480;52.370;9.748;2023-02-15T12:17:16;14.13;;;10.35;;
8887;SDS011;4480;52.370;9.748;2023-02-15T12:19:45;15.40;;;10.60;;
8887;SDS011;4480;52.370;9.748;2023-02-15T12:22:18;12.05;;;9.65;;
8887;SDS011;4480;52.370;9.748;2023-02-15T12:24:48;13.77;;;10.30;;
8887;SDS011;4480;52.370;9.748;2023-02-15T12:27:17;13.32;;;9.90;;
8887;SDS011;4480;52.370;9.748;2023-02-15T12:29:47;17.53;;;11.40;;
8887;SDS011;4480;52.370;9.748;2023-02-15T12:32:16;15.63;;;10.37;;
8887;SDS011;4480;52.370;9.748;2023-02-15T12:34:46;13.23;;;10.85;;
8887;SDS011;4480;52.370;9.748;2023-02-15T12:37:15;13.13;;;10.57;;
8887;SDS011;4480;52.370;9.748;2023-02-15T12:39:52;11.67;;;10.30;;
8887;SDS011;4480;52.370;9.748;2023-02-15T12:42:20;13.47;;;10.47;;
8887;SDS011;4480;52.370;9.748;2023-02-15T12:44:59;13.80;;;10.90;;
8887;SDS011;4480;52.370;9.748;2023-02-15T12:47:27;11.77;;;10.15;;
8887;SDS011;4480;52.370;9.748;2023-02-15T12:50:11;19.45;;;11.35;;
8887;SDS011;4480;52.370;9.748;2023-02-15T12:52:43;16.93;;;11.03;;
8887;SDS011;4480;52.370;9.748;2023-02-15T12:55:16;11.82;;;9.55;;
8887;SDS011;4480;52.370;9.748;2023-02-15T12:57:46;13.70;;;10.53;;
8887;SDS011;4480;52.370;9.748;2023-02-15T13:00:25;12.90;;;10.07;;
8887;SDS011;4480;52.370;9.748;2023-02-15T13:02:56;18.23;;;11.30;;
8887;SDS011;4480;52.370;9.748;2023-02-15T13:05:28;13.27;;;10.70;;
8887;SDS011;4480;52.370;9.748;2023-02-15T13:08:02;12.50;;;10.80;;
8887;SDS011;4480;52.370;9.748;2023-02-15T13:10:36;13.07;;;10.67;;
8887;SDS011;4480;52.370;9.748;2023-02-15T13:13:09;14.88;;;11.07;;
8887;SDS011;4480;52.370;9.748;2023-02-15T13:15:37;14.37;;;10.90;;
8887;SDS011;4480;52.370;9.748;2023-02-15T13:18:10;12.33;;;10.27;;
8887;SDS011;4480;52.370;9.748;2023-02-15T13:20:43;18.77;;;13.07;;
8887;SDS011;4480;52.370;9.748;2023-02-15T13:23:15;15.27;;;11.87;;
8887;SDS011;4480;52.370;9.748;2023-02-15T13:25:50;16.20;;;12.30;;
8887;SDS011;4480;52.370;9.748;2023-02-15T13:28:18;14.93;;;11.00;;
8887;SDS011;4480;52.370;9.748;2023-02-15T13:30:49;15.47;;;11.50;;
8887;SDS011;4480;52.370;9.748;2023-02-15T13:33:18;13.83;;;10.50;;
8887;SDS011;4480;52.370;9.748;2023-02-15T13:35:55;15.17;;;11.00;;
8887;SDS011;4480;52.370;9.748;2023-02-15T13:38:35;15.87;;;11.90;;
8887;SDS011;4480;52.370;9.748;2023-02-15T13:41:14;14.73;;;11.63;;
8887;SDS011;4480;52.370;9.748;2023-02-15T13:43:47;16.70;;;11.93;;
8887;SDS011;4480;52.370;9.748;2023-02-15T13:46:21;20.30;;;11.90;;
8887;SDS011;4480;52.370;9.748;2023-02-15T13:49:02;15.60;;;12.00;;
8887;SDS011;4480;52.370;9.748;2023-02-15T13:51:41;14.67;;;10.67;;
8887;SDS011;4480;52.370;9.748;2023-02-15T13:54:25;14.27;;;10.57;;
8887;SDS011;4480;52.370;9.748;2023-02-15T13:57:05;14.33;;;10.73;;
8887;SDS011;4480;52.370;9.748;2023-02-15T13:59:46;18.20;;;11.63;;
8887;SDS011;4480;52.370;9.748;2023-02-15T14:05:28;14.83;;;10.80;;
8887;SDS011;4480;52.370;9.748;2023-02-15T14:08:07;14.90;;;12.03;;
8887;SDS011;4480;52.370;9.748;2023-02-15T14:10:43;15.63;;;12.57;;
8887;SDS011;4480;52.370;9.748;2023-02-15T14:13:27;16.97;;;12.00;;
8887;SDS011;4480;52.370;9.748;2023-02-15T14:16:09;17.80;;;12.80;;
8887;SDS011;4480;52.370;9.748;2023-02-15T14:18:44;15.85;;;12.45;;
8887;SDS011;4480;52.370;9.748;2023-02-15T14:21:15;14.90;;;11.40;;
8887;SDS011;4480;52.370;9.748;2023-02-15T14:23:52;14.07;;;11.87;;
8887;SDS011;4480;52.370;9.748;2023-02-15T14:26:29;14.90;;;11.60;;
8887;SDS011;4480;52.370;9.748;2023-02-15T14:29:08;13.20;;;10.87;;
8887;SDS011;4480;52.370;9.748;2023-02-15T14:31:45;14.83;;;11.90;;
8887;SDS011;4480;52.370;9.748;2023-02-15T14:34:18;15.50;;;12.30;;
8887;SDS011;4480;52.370;9.748;2023-02-15T14:36:48;15.20;;;11.73;;
8887;SDS011;4480;52.370;9.748;2023-02-15T14:39:22;16.53;;;12.10;;
8887;SDS011;4480;52.370;9.748;2023-02-15T14:42:14;16.50;;;11.73;;
8887;SDS011;4480;52.370;9.748;2023-02-15T14:44:50;13.43;;;10.90;;
8887;SDS011;4480;52.370;9.748;2023-02-15T14:47:22;19.40;;;11.97;;
8887;SDS011;4480;52.370;9.748;2023-02-15T14:49:55;16.17;;;12.10;;
8887;SDS011;4480;52.370;9.748;2023-02-15T14:52:22;14.40;;;11.70;;
8887;SDS011;4480;52.370;9.748;2023-02-15T14:54:53;13.37;;;11.00;;
8887;SDS011;4480;52.370;9.748;2023-02-15T14:57:26;17.90;;;11.65;;
8887;SDS011;4480;52.370;9.748;2023-02-15T14:59:58;14.67;;;12.40;;
8887;SDS011;4480;52.370;9.748;2023-02-15T15:02:40;16.40;;;11.75;;
8887;SDS011;4480;52.370;9.748;2023-02-15T15:05:11;15.30;;;11.53;;
8887;SDS011;4480;52.370;9.748;2023-02-15T15:07:45;16.40;;;11.87;;
8887;SDS011;4480;52.370;9.748;2023-02-15T15:19:05;14.60;;;11.88;;
8887;SDS011;4480;52.370;9.748;2023-02-15T15:21:51;15.07;;;11.38;;
8887;SDS011;4480;52.370;9.748;2023-02-15T15:33:35;15.10;;;12.23;;
8887;SDS011;4480;52.370;9.748;2023-02-15T15:39:31;14.30;;;11.82;;
8887;SDS011;4480;52.370;9.748;2023-02-15T15:42:19;14.23;;;11.40;;
8887;SDS011;4480;52.370;9.748;2023-02-15T15:47:56;15.73;;;13.00;;
8887;SDS011;4480;52.370;9.748;2023-02-15T15:50:32;15.13;;;11.77;;
8887;SDS011;4480;52.370;9.748;2023-02-15T15:53:00;13.90;;;11.30;;